PWSweather.com
Personal Weather Stations
Station Observations
THENIOUX
Tomatologue, TheniouxFR 18100

TomatologueTheniouxFR 18100

Lat: 47.2574218, Lon: 1.928950900000018

Elevation: 406

Station Type: davis vue

http://www.meteo.gedfr.co/index.php

Latest ConditionsUpdated 4:39:43 PM GMT+01:01 Tuesday, Jan 16, 2018
Currently Today's Max Today's Min Today's Average
Temperature 55.4°F13.0°C 57.6°F14.2°C 49.1°F9.5°C 52.5°F11.4°C
Dew Point 50.3°F10.2°C 52.8°F11.6°C 45.5°F7.5°C 48.9°F9.4°C
Winds 9.0 mph WSW14.5 kmh WSW 13.0 mph WSW20.9 kmh WSW - 8.7 mph 14.0 kmh
Wind Gusts -- 29.1 mph46.8 kmh - -
Humidity 83% 95% 72% 88%
Pressure 29.77 in1008.1 mb 30.16 in1021.3 mb 29.75 in1007.5 mb -
Precipitation - 0.01 in0.3 mm - -
Hour Temp Dew Point Humidity Winds Wind Gusts Pressure Precip Precip Rate Daily Precip Total
04:39 PM 55.4°F13.0°C 50.3°F10.2°C 83% 9.0 mph WSW14.5 kmh WSW -- 29.77 in1008.1 mb 0.00 in0.0 mm 0.00 in0.0 mm 0.01 in0.3 mm
04:37 PM 53.2°F11.8°C 47.5°F8.6°C 81% 8.1 mph SW13.0 kmh SW 16.1 mph25.9 kmh 30.08 in1018.6 mb 0.00 in0.0 mm 0.00 in0.0 mm 0.04 in1.0 mm
04:34 PM 55.6°F13.1°C 50.5°F10.3°C 83% 9.0 mph WSW14.5 kmh WSW -- 29.75 in1007.5 mb 0.00 in0.0 mm 0.00 in0.0 mm 0.01 in0.3 mm
04:32 PM 53.6°F12.0°C 47.3°F8.5°C 79% 8.1 mph WSW13.0 kmh WSW 19.0 mph30.6 kmh 30.07 in1018.3 mb 0.00 in0.0 mm 0.00 in0.0 mm 0.04 in1.0 mm
04:29 PM 55.6°F13.1°C 50.5°F10.3°C 83% 9.0 mph WSW14.5 kmh WSW -- 29.75 in1007.5 mb 0.00 in0.0 mm 0.00 in0.0 mm 0.01 in0.3 mm
04:27 PM 53.8°F12.1°C 47.1°F8.4°C 78% 8.9 mph SW14.3 kmh SW 17.0 mph27.4 kmh 30.07 in1018.3 mb 0.00 in0.0 mm 0.00 in0.0 mm 0.04 in1.0 mm
04:24 PM 56.1°F13.4°C 51.0°F10.6°C 83% 11.0 mph WSW17.7 kmh WSW -- 29.75 in1007.5 mb 0.00 in0.0 mm 0.00 in0.0 mm 0.01 in0.3 mm
04:22 PM 54.1°F12.3°C 47.5°F8.6°C 78% 11.0 mph SW17.7 kmh SW 17.9 mph28.8 kmh 30.06 in1017.9 mb 0.00 in0.0 mm 0.00 in0.0 mm 0.04 in1.0 mm
04:19 PM 56.1°F13.4°C 51.0°F10.6°C 83% 11.0 mph WSW17.7 kmh WSW -- 29.75 in1007.5 mb 0.00 in0.0 mm 0.00 in0.0 mm 0.01 in0.3 mm
04:17 PM 54.1°F12.3°C 47.1°F8.4°C 77% 10.1 mph SW16.3 kmh SW 21.0 mph33.8 kmh 30.06 in1017.9 mb 0.00 in0.0 mm 0.00 in0.0 mm 0.04 in1.0 mm
04:14 PM 55.8°F13.2°C 50.7°F10.4°C 83% 12.0 mph WSW19.3 kmh WSW -- 29.77 in1008.1 mb 0.00 in0.0 mm 0.00 in0.0 mm 0.01 in0.3 mm
04:12 PM 54.5°F12.5°C 47.8°F8.8°C 78% 11.0 mph WSW17.7 kmh WSW 17.0 mph27.4 kmh 30.06 in1017.9 mb 0.00 in0.0 mm 0.00 in0.0 mm 0.04 in1.0 mm
04:09 PM 55.8°F13.2°C 50.7°F10.4°C 83% 12.0 mph WSW19.3 kmh WSW -- 29.77 in1008.1 mb 0.00 in0.0 mm 0.00 in0.0 mm 0.01 in0.3 mm
04:07 PM 54.3°F12.4°C 47.3°F8.5°C 77% 13.0 mph SW20.9 kmh SW 23.9 mph38.5 kmh 30.07 in1018.3 mb 0.00 in0.0 mm 0.00 in0.0 mm 0.04 in1.0 mm
04:04 PM 55.6°F13.1°C 50.5°F10.3°C 83% 10.0 mph WSW16.1 kmh WSW -- 29.76 in1007.8 mb 0.00 in0.0 mm 0.00 in0.0 mm 0.01 in0.3 mm
04:02 PM 54.1°F12.3°C 47.8°F8.8°C 79% 12.1 mph SSW19.5 kmh SSW 28.0 mph45.1 kmh 30.08 in1018.6 mb 0.00 in0.0 mm 0.00 in0.0 mm 0.04 in1.0 mm
03:59 PM 55.6°F13.1°C 50.5°F10.3°C 83% 10.0 mph WSW16.1 kmh WSW -- 29.76 in1007.8 mb 0.00 in0.0 mm 0.00 in0.0 mm 0.01 in0.3 mm
03:57 PM 54.1°F12.3°C 47.8°F8.8°C 79% 10.1 mph SSW16.3 kmh SSW 25.9 mph41.7 kmh 30.08 in1018.6 mb 0.00 in0.0 mm 0.00 in0.0 mm 0.04 in1.0 mm
03:54 PM 55.2°F12.9°C 50.1°F10.1°C 83% 8.0 mph WSW12.9 kmh WSW -- 29.77 in1008.1 mb 0.00 in0.0 mm 0.00 in0.0 mm 0.01 in0.3 mm
03:52 PM 54.0°F12.2°C 48.0°F8.9°C 80% 8.9 mph SW14.3 kmh SW 23.0 mph37.0 kmh 30.08 in1018.6 mb 0.00 in0.0 mm 0.00 in0.0 mm 0.04 in1.0 mm
03:49 PM 55.2°F12.9°C 50.1°F10.1°C 83% 8.0 mph WSW12.9 kmh WSW -- 29.77 in1008.1 mb 0.00 in0.0 mm 0.00 in0.0 mm 0.01 in0.3 mm
03:47 PM 54.1°F12.3°C 48.0°F8.9°C 80% 8.9 mph WSW14.3 kmh WSW 17.9 mph28.8 kmh 30.08 in1018.6 mb 0.00 in0.0 mm 0.00 in0.0 mm 0.04 in1.0 mm
03:44 PM 54.9°F12.7°C 49.8°F9.9°C 83% 10.0 mph WSW16.1 kmh WSW -- 29.77 in1008.1 mb 0.00 in0.0 mm 0.00 in0.0 mm 0.01 in0.3 mm
03:42 PM 54.1°F12.3°C 48.0°F8.9°C 80% 10.1 mph SW16.3 kmh SW 19.0 mph30.6 kmh 30.09 in1019.0 mb 0.00 in0.0 mm 0.00 in0.0 mm 0.04 in1.0 mm
03:39 PM 54.9°F12.7°C 49.8°F9.9°C 83% 10.0 mph WSW16.1 kmh WSW -- 29.77 in1008.1 mb 0.00 in0.0 mm 0.00 in0.0 mm 0.01 in0.3 mm
03:37 PM 54.1°F12.3°C 48.0°F8.9°C 80% 11.0 mph SW17.7 kmh SW 19.9 mph32.0 kmh 30.09 in1019.0 mb 0.00 in0.0 mm 0.00 in0.0 mm 0.04 in1.0 mm
03:34 PM 54.7°F12.6°C 49.6°F9.8°C 83% 11.0 mph WSW17.7 kmh WSW -- 29.77 in1008.1 mb 0.00 in0.0 mm 0.00 in0.0 mm 0.01 in0.3 mm
03:32 PM 54.1°F12.3°C 48.0°F8.9°C 80% 10.1 mph SE16.3 kmh SE 21.9 mph35.2 kmh 30.09 in1019.0 mb 0.00 in0.0 mm 0.00 in0.0 mm 0.04 in1.0 mm
03:29 PM 54.7°F12.6°C 49.6°F9.8°C 83% 11.0 mph WSW17.7 kmh WSW -- 29.77 in1008.1 mb 0.00 in0.0 mm 0.00 in0.0 mm 0.01 in0.3 mm
03:27 PM 53.8°F12.1°C 47.8°F8.8°C 80% 11.0 mph SW17.7 kmh SW 25.9 mph41.7 kmh 30.09 in1019.0 mb 0.00 in0.0 mm 0.00 in0.0 mm 0.04 in1.0 mm
03:24 PM 55.0°F12.8°C 50.0°F10.0°C 83% 10.0 mph WSW16.1 kmh WSW -- 29.77 in1008.1 mb 0.00 in0.0 mm 0.00 in0.0 mm 0.01 in0.3 mm
03:22 PM 53.4°F11.9°C 47.5°F8.6°C 80% 11.0 mph SW17.7 kmh SW 25.9 mph41.7 kmh 30.09 in1019.0 mb 0.00 in0.0 mm 0.00 in0.0 mm 0.04 in1.0 mm
03:19 PM 55.0°F12.8°C 50.0°F10.0°C 83% 10.0 mph WSW16.1 kmh WSW -- 29.77 in1008.1 mb 0.00 in0.0 mm 0.00 in0.0 mm 0.01 in0.3 mm
03:17 PM 53.1°F11.7°C 47.7°F8.7°C 82% 11.0 mph SW17.7 kmh SW 21.9 mph35.2 kmh 30.09 in1019.0 mb 0.00 in0.0 mm 0.00 in0.0 mm 0.04 in1.0 mm
03:14 PM 55.6°F13.1°C 50.8°F10.4°C 84% 11.0 mph WSW17.7 kmh WSW -- 29.77 in1008.1 mb 0.00 in0.0 mm 0.00 in0.0 mm 0.01 in0.3 mm
03:12 PM 52.7°F11.5°C 47.3°F8.5°C 82% 11.0 mph S17.7 kmh S 21.9 mph35.2 kmh 30.09 in1019.0 mb 0.00 in0.0 mm 0.00 in0.0 mm 0.04 in1.0 mm
03:09 PM 55.6°F13.1°C 50.8°F10.4°C 84% 11.0 mph WSW17.7 kmh WSW -- 29.77 in1008.1 mb 0.00 in0.0 mm 0.00 in0.0 mm 0.01 in0.3 mm
03:07 PM 52.3°F11.3°C 47.3°F8.5°C 83% 8.9 mph S14.3 kmh S 19.0 mph30.6 kmh 30.09 in1019.0 mb 0.00 in0.0 mm 0.00 in0.0 mm 0.04 in1.0 mm
03:04 PM 56.3°F13.5°C 51.2°F10.7°C 83% 9.0 mph WSW14.5 kmh WSW -- 29.78 in1008.5 mb 0.00 in0.0 mm 0.00 in0.0 mm 0.01 in0.3 mm
03:02 PM 52.3°F11.3°C 47.7°F8.7°C 84% 6.9 mph WSW11.1 kmh WSW 14.1 mph22.7 kmh 30.09 in1019.0 mb 0.00 in0.0 mm 0.00 in0.0 mm 0.04 in1.0 mm
02:59 PM 56.3°F13.5°C 51.2°F10.7°C 83% 9.0 mph WSW14.5 kmh WSW -- 29.78 in1008.5 mb 0.00 in0.0 mm 0.00 in0.0 mm 0.01 in0.3 mm
02:57 PM 52.5°F11.4°C 47.8°F8.8°C 84% 8.9 mph SW14.3 kmh SW 15.0 mph24.1 kmh 30.09 in1019.0 mb 0.00 in0.0 mm 0.00 in0.0 mm 0.04 in1.0 mm
02:54 PM 56.8°F13.8°C 51.7°F10.9°C 83% 9.0 mph WSW14.5 kmh WSW -- 29.79 in1008.8 mb 0.00 in0.0 mm 0.00 in0.0 mm 0.01 in0.3 mm
02:52 PM 52.9°F11.6°C 47.8°F8.8°C 83% 10.1 mph SSW16.3 kmh SSW 23.0 mph37.0 kmh 30.09 in1019.0 mb 0.00 in0.0 mm 0.00 in0.0 mm 0.04 in1.0 mm
02:49 PM 56.8°F13.8°C 51.7°F10.9°C 83% 9.0 mph WSW14.5 kmh WSW -- 29.79 in1008.8 mb 0.00 in0.0 mm 0.00 in0.0 mm 0.01 in0.3 mm
02:47 PM 53.1°F11.7°C 48.0°F8.9°C 83% 11.0 mph SW17.7 kmh SW 19.0 mph30.6 kmh 30.10 in1019.3 mb 0.00 in0.0 mm 0.00 in0.0 mm 0.04 in1.0 mm
02:44 PM 57.4°F14.1°C 52.3°F11.3°C 83% 9.0 mph WSW14.5 kmh WSW -- 29.79 in1008.8 mb 0.00 in0.0 mm 0.00 in0.0 mm 0.01 in0.3 mm
02:42 PM 54.0°F12.2°C 48.0°F8.9°C 80% 10.1 mph SW16.3 kmh SW 23.0 mph37.0 kmh 30.11 in1019.6 mb 0.00 in0.0 mm 0.00 in0.0 mm 0.04 in1.0 mm
02:39 PM 57.4°F14.1°C 52.3°F11.3°C 83% 9.0 mph WSW14.5 kmh WSW -- 29.79 in1008.8 mb 0.00 in0.0 mm 0.00 in0.0 mm 0.01 in0.3 mm
02:37 PM 54.3°F12.4°C 47.3°F8.5°C 77% 8.9 mph SW14.3 kmh SW 17.9 mph28.8 kmh 30.10 in1019.3 mb 0.00 in0.0 mm 0.00 in0.0 mm 0.04 in1.0 mm
02:34 PM 57.2°F14.0°C 52.1°F11.2°C 83% 8.0 mph WSW12.9 kmh WSW -- 29.80 in1009.1 mb 0.00 in0.0 mm 0.00 in0.0 mm 0.01 in0.3 mm
02:32 PM 54.7°F12.6°C 47.7°F8.7°C 77% 8.1 mph SW13.0 kmh SW 19.0 mph30.6 kmh 30.10 in1019.3 mb 0.00 in0.0 mm 0.00 in0.0 mm 0.04 in1.0 mm
02:29 PM 57.2°F14.0°C 52.1°F11.2°C 83% 8.0 mph WSW12.9 kmh WSW -- 29.80 in1009.1 mb 0.00 in0.0 mm 0.00 in0.0 mm 0.01 in0.3 mm
02:27 PM 54.7°F12.6°C 48.0°F8.9°C 78% 8.9 mph SW14.3 kmh SW 17.0 mph27.4 kmh 30.11 in1019.6 mb 0.00 in0.0 mm 0.00 in0.0 mm 0.04 in1.0 mm
02:24 PM 57.6°F14.2°C 52.4°F11.3°C 83% 8.0 mph WSW12.9 kmh WSW -- 29.81 in1009.5 mb 0.00 in0.0 mm 0.00 in0.0 mm 0.01 in0.3 mm
02:22 PM 54.5°F12.5°C 47.1°F8.4°C 76% 10.1 mph SW16.3 kmh SW 19.0 mph30.6 kmh 30.11 in1019.6 mb 0.00 in0.0 mm 0.00 in0.0 mm 0.04 in1.0 mm
02:19 PM 57.6°F14.2°C 52.4°F11.3°C 83% 8.0 mph WSW12.9 kmh WSW -- 29.81 in1009.5 mb 0.00 in0.0 mm 0.00 in0.0 mm 0.01 in0.3 mm
02:17 PM 54.7°F12.6°C 47.7°F8.7°C 77% 10.1 mph SSW16.3 kmh SSW 17.0 mph27.4 kmh 30.11 in1019.6 mb 0.00 in0.0 mm 0.00 in0.0 mm 0.04 in1.0 mm
02:14 PM 57.6°F14.2°C 52.8°F11.6°C 84% 9.0 mph WSW14.5 kmh WSW -- 29.80 in1009.1 mb 0.00 in0.0 mm 0.00 in0.0 mm 0.01 in0.3 mm
02:12 PM 54.7°F12.6°C 47.7°F8.7°C 77% 11.0 mph SSW17.7 kmh SSW 21.0 mph33.8 kmh 30.11 in1019.6 mb 0.00 in0.0 mm 0.00 in0.0 mm 0.04 in1.0 mm
02:09 PM 57.6°F14.2°C 52.8°F11.6°C 84% 9.0 mph WSW14.5 kmh WSW -- 29.80 in1009.1 mb 0.00 in0.0 mm 0.00 in0.0 mm 0.01 in0.3 mm
02:07 PM 54.5°F12.5°C 47.8°F8.8°C 78% 12.1 mph SW19.5 kmh SW 23.9 mph38.5 kmh 30.12 in1020.0 mb 0.00 in0.0 mm 0.00 in0.0 mm 0.04 in1.0 mm
02:04 PM 57.6°F14.2°C 52.8°F11.6°C 84% 8.0 mph WSW12.9 kmh WSW -- 29.81 in1009.5 mb 0.00 in0.0 mm 0.00 in0.0 mm 0.01 in0.3 mm
02:02 PM 54.5°F12.5°C 47.5°F8.6°C 77% 11.0 mph SW17.7 kmh SW 23.0 mph37.0 kmh 30.12 in1020.0 mb 0.00 in0.0 mm 0.00 in0.0 mm 0.04 in1.0 mm
01:59 PM 57.6°F14.2°C 52.8°F11.6°C 84% 8.0 mph WSW12.9 kmh WSW -- 29.81 in1009.5 mb 0.00 in0.0 mm 0.00 in0.0 mm 0.01 in0.3 mm
01:57 PM 54.3°F12.4°C 48.0°F8.9°C 79% 10.1 mph SW16.3 kmh SW 16.1 mph25.9 kmh 30.12 in1020.0 mb 0.00 in0.0 mm 0.00 in0.0 mm 0.04 in1.0 mm
01:54 PM 57.2°F14.0°C 52.4°F11.3°C 84% 11.0 mph WSW17.7 kmh WSW -- 29.82 in1009.8 mb 0.00 in0.0 mm 0.00 in0.0 mm 0.01 in0.3 mm
01:52 PM 54.1°F12.3°C 47.5°F8.6°C 78% 11.0 mph SW17.7 kmh SW 21.0 mph33.8 kmh 30.13 in1020.3 mb 0.00 in0.0 mm 0.00 in0.0 mm 0.04 in1.0 mm
01:49 PM 57.2°F14.0°C 52.4°F11.3°C 84% 11.0 mph WSW17.7 kmh WSW -- 29.82 in1009.8 mb 0.00 in0.0 mm 0.00 in0.0 mm 0.01 in0.3 mm
01:47 PM 54.0°F12.2°C 47.3°F8.5°C 78% 11.0 mph SW17.7 kmh SW 19.9 mph32.0 kmh 30.14 in1020.7 mb 0.00 in0.0 mm 0.00 in0.0 mm 0.04 in1.0 mm
01:44 PM 56.8°F13.8°C 52.1°F11.2°C 84% 8.0 mph WSW12.9 kmh WSW -- 29.82 in1009.8 mb 0.00 in0.0 mm 0.00 in0.0 mm 0.01 in0.3 mm
01:42 PM 54.1°F12.3°C 47.5°F8.6°C 78% 10.1 mph SW16.3 kmh SW 19.0 mph30.6 kmh 30.14 in1020.7 mb 0.00 in0.0 mm 0.00 in0.0 mm 0.04 in1.0 mm
01:39 PM 56.8°F13.8°C 52.1°F11.2°C 84% 8.0 mph WSW12.9 kmh WSW -- 29.82 in1009.8 mb 0.00 in0.0 mm 0.00 in0.0 mm 0.01 in0.3 mm
01:37 PM 54.1°F12.3°C 47.1°F8.4°C 77% 11.0 mph SW17.7 kmh SW 19.0 mph30.6 kmh 30.14 in1020.7 mb 0.00 in0.0 mm 0.00 in0.0 mm 0.04 in1.0 mm
01:34 PM 56.7°F13.7°C 52.2°F11.2°C 85% 12.0 mph WSW19.3 kmh WSW -- 29.82 in1009.8 mb 0.00 in0.0 mm 0.00 in0.0 mm 0.01 in0.3 mm
01:32 PM 54.1°F12.3°C 46.8°F8.2°C 76% 11.0 mph WSW17.7 kmh WSW 21.0 mph33.8 kmh 30.14 in1020.7 mb 0.00 in0.0 mm 0.00 in0.0 mm 0.04 in1.0 mm
01:29 PM 56.7°F13.7°C 52.2°F11.2°C 85% 12.0 mph WSW19.3 kmh WSW -- 29.82 in1009.8 mb 0.00 in0.0 mm 0.00 in0.0 mm 0.01 in0.3 mm
01:27 PM 54.3°F12.4°C 46.9°F8.3°C 76% 10.1 mph SSE16.3 kmh SSE 27.1 mph43.6 kmh 30.14 in1020.7 mb 0.00 in0.0 mm 0.00 in0.0 mm 0.04 in1.0 mm
01:24 PM 56.7°F13.7°C 52.2°F11.2°C 85% 10.0 mph WSW16.1 kmh WSW -- 29.83 in1010.2 mb 0.00 in0.0 mm 0.00 in0.0 mm 0.01 in0.3 mm
01:22 PM 54.1°F12.3°C 46.8°F8.2°C 76% 12.1 mph SW19.5 kmh SW 23.9 mph38.5 kmh 30.14 in1020.7 mb 0.00 in0.0 mm 0.00 in0.0 mm 0.04 in1.0 mm
01:19 PM 56.7°F13.7°C 52.2°F11.2°C 85% 10.0 mph WSW16.1 kmh WSW -- 29.83 in1010.2 mb 0.00 in0.0 mm 0.00 in0.0 mm 0.01 in0.3 mm
01:17 PM 54.3°F12.4°C 46.2°F7.9°C 74% 13.0 mph SW20.9 kmh SW 23.9 mph38.5 kmh 30.14 in1020.7 mb 0.00 in0.0 mm 0.00 in0.0 mm 0.04 in1.0 mm
01:14 PM 56.7°F13.7°C 52.2°F11.2°C 85% 10.0 mph WSW16.1 kmh WSW -- 29.83 in1010.2 mb 0.00 in0.0 mm 0.00 in0.0 mm 0.01 in0.3 mm
01:12 PM 54.5°F12.5°C 46.4°F8.0°C 74% 13.0 mph SW20.9 kmh SW 23.9 mph38.5 kmh 30.14 in1020.7 mb 0.00 in0.0 mm 0.00 in0.0 mm 0.04 in1.0 mm
01:09 PM 56.7°F13.7°C 52.2°F11.2°C 85% 10.0 mph WSW16.1 kmh WSW -- 29.83 in1010.2 mb 0.00 in0.0 mm 0.00 in0.0 mm 0.01 in0.3 mm
01:07 PM 54.7°F12.6°C 46.2°F7.9°C 73% 13.0 mph SSW20.9 kmh SSW 29.1 mph46.8 kmh 30.14 in1020.7 mb 0.00 in0.0 mm 0.00 in0.0 mm 0.04 in1.0 mm
01:04 PM 56.7°F13.7°C 52.5°F11.4°C 86% 8.0 mph WSW12.9 kmh WSW -- 29.82 in1009.8 mb 0.00 in0.0 mm 0.00 in0.0 mm 0.01 in0.3 mm
01:02 PM 54.7°F12.6°C 46.2°F7.9°C 73% 13.0 mph SW20.9 kmh SW 28.0 mph45.1 kmh 30.14 in1020.7 mb 0.00 in0.0 mm 0.00 in0.0 mm 0.04 in1.0 mm
12:59 PM 56.7°F13.7°C 52.5°F11.4°C 86% 8.0 mph WSW12.9 kmh WSW -- 29.82 in1009.8 mb 0.00 in0.0 mm 0.00 in0.0 mm 0.01 in0.3 mm
12:57 PM 54.7°F12.6°C 46.2°F7.9°C 73% 11.0 mph SW17.7 kmh SW 23.0 mph37.0 kmh 30.14 in1020.7 mb 0.00 in0.0 mm 0.00 in0.0 mm 0.04 in1.0 mm
12:54 PM 56.7°F13.7°C 52.5°F11.4°C 86% 8.0 mph WSW12.9 kmh WSW -- 29.82 in1009.8 mb 0.00 in0.0 mm 0.00 in0.0 mm 0.01 in0.3 mm
12:52 PM 54.7°F12.6°C 46.2°F7.9°C 73% 8.9 mph WSW14.3 kmh WSW 19.0 mph30.6 kmh 30.14 in1020.7 mb 0.00 in0.0 mm 0.00 in0.0 mm 0.04 in1.0 mm
12:49 PM 56.3°F13.5°C 52.2°F11.2°C 86% 13.0 mph WSW20.9 kmh WSW -- 29.82 in1009.8 mb 0.00 in0.0 mm 0.00 in0.0 mm 0.01 in0.3 mm
12:47 PM 54.7°F12.6°C 46.2°F7.9°C 73% 10.1 mph SW16.3 kmh SW 17.9 mph28.8 kmh 30.15 in1021.0 mb 0.00 in0.0 mm 0.00 in0.0 mm 0.04 in1.0 mm
12:44 PM 56.3°F13.5°C 52.2°F11.2°C 86% 13.0 mph WSW20.9 kmh WSW -- 29.82 in1009.8 mb 0.00 in0.0 mm 0.00 in0.0 mm 0.01 in0.3 mm
12:42 PM 54.7°F12.6°C 46.2°F7.9°C 73% 13.0 mph WSW20.9 kmh WSW 27.1 mph43.6 kmh 30.14 in1020.7 mb 0.00 in0.0 mm 0.00 in0.0 mm 0.04 in1.0 mm
12:39 PM 55.9°F13.3°C 52.1°F11.2°C 87% 11.0 mph WSW17.7 kmh WSW -- 29.83 in1010.2 mb 0.00 in0.0 mm 0.00 in0.0 mm 0.01 in0.3 mm
12:37 PM 54.5°F12.5°C 46.0°F7.8°C 73% 12.1 mph SW19.5 kmh SW 23.9 mph38.5 kmh 30.14 in1020.7 mb 0.00 in0.0 mm 0.00 in0.0 mm 0.04 in1.0 mm
12:34 PM 55.9°F13.3°C 52.1°F11.2°C 87% 11.0 mph WSW17.7 kmh WSW -- 29.83 in1010.2 mb 0.00 in0.0 mm 0.00 in0.0 mm 0.01 in0.3 mm
12:32 PM 54.3°F12.4°C 45.5°F7.5°C 72% 10.1 mph WSW16.3 kmh WSW 27.1 mph43.6 kmh 30.15 in1021.0 mb 0.00 in0.0 mm 0.00 in0.0 mm 0.04 in1.0 mm
12:29 PM 55.8°F13.2°C 51.9°F11.1°C 87% 9.0 mph WSW14.5 kmh WSW -- 29.83 in1010.2 mb 0.00 in0.0 mm 0.00 in0.0 mm 0.01 in0.3 mm
12:26 PM 54.3°F12.4°C 46.6°F8.1°C 75% 11.0 mph SW17.7 kmh SW 19.0 mph30.6 kmh 30.15 in1021.0 mb 0.00 in0.0 mm 0.00 in0.0 mm 0.04 in1.0 mm
12:24 PM 55.8°F13.2°C 51.9°F11.1°C 87% 9.0 mph WSW14.5 kmh WSW -- 29.83 in1010.2 mb 0.00 in0.0 mm 0.00 in0.0 mm 0.01 in0.3 mm
12:21 PM 54.1°F12.3°C 46.4°F8.0°C 75% 13.0 mph SSW20.9 kmh SSW 23.0 mph37.0 kmh 30.15 in1021.0 mb 0.00 in0.0 mm 0.00 in0.0 mm 0.04 in1.0 mm
12:19 PM 55.6°F13.1°C 51.8°F11.0°C 87% 8.0 mph WSW12.9 kmh WSW -- 29.83 in1010.2 mb 0.00 in0.0 mm 0.00 in0.0 mm 0.01 in0.3 mm
12:16 PM 54.0°F12.2°C 46.2°F7.9°C 75% 12.1 mph SW19.5 kmh SW 25.9 mph41.7 kmh 30.15 in1021.0 mb 0.00 in0.0 mm 0.00 in0.0 mm 0.04 in1.0 mm
12:14 PM 55.6°F13.1°C 51.8°F11.0°C 87% 8.0 mph WSW12.9 kmh WSW -- 29.83 in1010.2 mb 0.00 in0.0 mm 0.00 in0.0 mm 0.01 in0.3 mm
12:11 PM 54.0°F12.2°C 46.6°F8.1°C 76% 12.1 mph SW19.5 kmh SW 25.1 mph40.4 kmh 30.15 in1021.0 mb 0.00 in0.0 mm 0.00 in0.0 mm 0.04 in1.0 mm
12:09 PM 55.6°F13.1°C 52.1°F11.2°C 88% 11.0 mph WSW17.7 kmh WSW -- 29.84 in1010.5 mb 0.00 in0.0 mm 0.00 in0.0 mm 0.01 in0.3 mm
12:06 PM 54.0°F12.2°C 46.9°F8.3°C 77% 12.1 mph SSW19.5 kmh SSW 25.1 mph40.4 kmh 30.15 in1021.0 mb 0.00 in0.0 mm 0.00 in0.0 mm 0.04 in1.0 mm
12:04 PM 55.6°F13.1°C 52.1°F11.2°C 88% 11.0 mph WSW17.7 kmh WSW -- 29.84 in1010.5 mb 0.00 in0.0 mm 0.00 in0.0 mm 0.01 in0.3 mm
12:01 PM 54.1°F12.3°C 47.5°F8.6°C 78% 12.1 mph SW19.5 kmh SW 23.0 mph37.0 kmh 30.15 in1021.0 mb 0.00 in0.0 mm 0.00 in0.0 mm 0.04 in1.0 mm
11:59 AM 55.6°F13.1°C 52.1°F11.2°C 88% 11.0 mph WSW17.7 kmh WSW -- 29.84 in1010.5 mb 0.00 in0.0 mm 0.00 in0.0 mm 0.01 in0.3 mm
11:56 AM 54.1°F12.3°C 48.0°F8.9°C 80% 12.1 mph SW19.5 kmh SW 25.1 mph40.4 kmh 30.16 in1021.3 mb 0.00 in0.0 mm 0.00 in0.0 mm 0.04 in1.0 mm
11:54 AM 55.6°F13.1°C 52.1°F11.2°C 88% 11.0 mph WSW17.7 kmh WSW -- 29.84 in1010.5 mb 0.00 in0.0 mm 0.00 in0.0 mm 0.01 in0.3 mm
11:51 AM 54.0°F12.2°C 48.0°F8.9°C 80% 12.1 mph SW19.5 kmh SW 23.9 mph38.5 kmh 30.16 in1021.3 mb 0.00 in0.0 mm 0.00 in0.0 mm 0.04 in1.0 mm
11:49 AM 55.6°F13.1°C 52.1°F11.2°C 88% 11.0 mph WSW17.7 kmh WSW -- 29.84 in1010.5 mb 0.00 in0.0 mm 0.00 in0.0 mm 0.01 in0.3 mm
11:46 AM 53.8°F12.1°C 48.4°F9.1°C 82% 12.1 mph SW19.5 kmh SW 23.9 mph38.5 kmh 30.16 in1021.3 mb 0.00 in0.0 mm 0.00 in0.0 mm 0.04 in1.0 mm
11:44 AM 55.6°F13.1°C 52.1°F11.2°C 88% 11.0 mph WSW17.7 kmh WSW -- 29.84 in1010.5 mb 0.00 in0.0 mm 0.00 in0.0 mm 0.01 in0.3 mm
11:41 AM 53.8°F12.1°C 48.4°F9.1°C 82% 11.0 mph WSW17.7 kmh WSW 23.9 mph38.5 kmh 30.16 in1021.3 mb 0.00 in0.0 mm 0.00 in0.0 mm 0.04 in1.0 mm
11:39 AM 55.2°F12.9°C 52.0°F11.1°C 89% 8.0 mph WSW12.9 kmh WSW -- 29.84 in1010.5 mb 0.00 in0.0 mm 0.00 in0.0 mm 0.01 in0.3 mm
11:36 AM 53.8°F12.1°C 48.7°F9.3°C 83% 11.0 mph SW17.7 kmh SW 29.1 mph46.8 kmh 30.16 in1021.3 mb 0.00 in0.0 mm 0.00 in0.0 mm 0.04 in1.0 mm
11:34 AM 55.2°F12.9°C 52.0°F11.1°C 89% 8.0 mph WSW12.9 kmh WSW -- 29.84 in1010.5 mb 0.00 in0.0 mm 0.00 in0.0 mm 0.01 in0.3 mm
11:31 AM 53.6°F12.0°C 48.6°F9.2°C 83% 11.0 mph SW17.7 kmh SW 21.9 mph35.2 kmh 30.16 in1021.3 mb 0.00 in0.0 mm 0.00 in0.0 mm 0.04 in1.0 mm
11:29 AM 55.2°F12.9°C 52.0°F11.1°C 89% 8.0 mph WSW12.9 kmh WSW -- 29.84 in1010.5 mb 0.00 in0.0 mm 0.00 in0.0 mm 0.01 in0.3 mm
11:26 AM 53.4°F11.9°C 48.4°F9.1°C 83% 11.0 mph SW17.7 kmh SW 23.0 mph37.0 kmh 30.16 in1021.3 mb 0.00 in0.0 mm 0.00 in0.0 mm 0.04 in1.0 mm
11:24 AM 55.2°F12.9°C 52.0°F11.1°C 89% 8.0 mph WSW12.9 kmh WSW -- 29.84 in1010.5 mb 0.00 in0.0 mm 0.00 in0.0 mm 0.01 in0.3 mm
11:21 AM 53.4°F11.9°C 48.4°F9.1°C 83% 11.0 mph SW17.7 kmh SW 21.0 mph33.8 kmh 30.16 in1021.3 mb 0.00 in0.0 mm 0.00 in0.0 mm 0.04 in1.0 mm
11:19 AM 55.8°F13.2°C 52.6°F11.4°C 89% 10.0 mph WSW16.1 kmh WSW -- 29.84 in1010.5 mb 0.00 in0.0 mm 0.00 in0.0 mm 0.01 in0.3 mm
11:16 AM 53.2°F11.8°C 48.6°F9.2°C 84% 10.1 mph SSW16.3 kmh SSW 19.9 mph32.0 kmh 30.16 in1021.3 mb 0.00 in0.0 mm 0.00 in0.0 mm 0.04 in1.0 mm
11:14 AM 55.8°F13.2°C 52.6°F11.4°C 89% 10.0 mph WSW16.1 kmh WSW -- 29.84 in1010.5 mb 0.00 in0.0 mm 0.00 in0.0 mm 0.01 in0.3 mm
11:11 AM 53.2°F11.8°C 48.6°F9.2°C 84% 10.1 mph S16.3 kmh S 21.9 mph35.2 kmh 30.16 in1021.3 mb 0.00 in0.0 mm 0.00 in0.0 mm 0.04 in1.0 mm
11:09 AM 55.4°F13.0°C 52.2°F11.2°C 89% 13.0 mph WSW20.9 kmh WSW -- 29.84 in1010.5 mb 0.00 in0.0 mm 0.00 in0.0 mm 0.01 in0.3 mm
11:06 AM 53.1°F11.7°C 48.7°F9.3°C 85% 10.1 mph S16.3 kmh S 23.0 mph37.0 kmh 30.16 in1021.3 mb 0.00 in0.0 mm 0.00 in0.0 mm 0.04 in1.0 mm
11:04 AM 55.4°F13.0°C 52.2°F11.2°C 89% 13.0 mph WSW20.9 kmh WSW -- 29.84 in1010.5 mb 0.00 in0.0 mm 0.00 in0.0 mm 0.01 in0.3 mm
11:01 AM 52.9°F11.6°C 48.6°F9.2°C 85% 10.1 mph SW16.3 kmh SW 21.9 mph35.2 kmh 30.15 in1021.0 mb 0.00 in0.0 mm 0.00 in0.0 mm 0.04 in1.0 mm
10:59 AM 54.5°F12.5°C 51.6°F10.9°C 90% 13.0 mph WSW20.9 kmh WSW -- 29.83 in1010.2 mb 0.00 in0.0 mm 0.00 in0.0 mm 0.01 in0.3 mm
10:56 AM 52.7°F11.5°C 48.4°F9.1°C 85% 11.0 mph WSW17.7 kmh WSW 17.0 mph27.4 kmh 30.15 in1021.0 mb 0.00 in0.0 mm 0.00 in0.0 mm 0.04 in1.0 mm
10:54 AM 54.5°F12.5°C 51.6°F10.9°C 90% 13.0 mph WSW20.9 kmh WSW -- 29.83 in1010.2 mb 0.00 in0.0 mm 0.00 in0.0 mm 0.01 in0.3 mm
10:51 AM 52.5°F11.4°C 48.2°F9.0°C 85% 12.1 mph S19.5 kmh S 21.9 mph35.2 kmh 30.15 in1021.0 mb 0.00 in0.0 mm 0.00 in0.0 mm 0.04 in1.0 mm
10:49 AM 54.5°F12.5°C 51.6°F10.9°C 90% 13.0 mph WSW20.9 kmh WSW -- 29.83 in1010.2 mb 0.00 in0.0 mm 0.00 in0.0 mm 0.01 in0.3 mm
10:46 AM 52.5°F11.4°C 48.4°F9.1°C 86% 12.1 mph SW19.5 kmh SW 25.9 mph41.7 kmh 30.15 in1021.0 mb 0.00 in0.0 mm 0.00 in0.0 mm 0.04 in1.0 mm
10:44 AM 54.5°F12.5°C 51.6°F10.9°C 90% 13.0 mph WSW20.9 kmh WSW -- 29.83 in1010.2 mb 0.00 in0.0 mm 0.00 in0.0 mm 0.01 in0.3 mm
10:41 AM 52.3°F11.3°C 48.2°F9.0°C 86% 10.1 mph WSW16.3 kmh WSW 21.0 mph33.8 kmh 30.15 in1021.0 mb 0.00 in0.0 mm 0.00 in0.0 mm 0.04 in1.0 mm
10:39 AM 54.1°F12.3°C 51.3°F10.7°C 90% 10.0 mph WSW16.1 kmh WSW -- 29.84 in1010.5 mb 0.00 in0.0 mm 0.00 in0.0 mm 0.01 in0.3 mm
10:36 AM 52.2°F11.2°C 48.0°F8.9°C 86% 10.1 mph SW16.3 kmh SW 23.9 mph38.5 kmh 30.15 in1021.0 mb 0.00 in0.0 mm 0.00 in0.0 mm 0.04 in1.0 mm
10:34 AM 54.1°F12.3°C 51.3°F10.7°C 90% 10.0 mph WSW16.1 kmh WSW -- 29.84 in1010.5 mb 0.00 in0.0 mm 0.00 in0.0 mm 0.01 in0.3 mm
10:31 AM 52.0°F11.1°C 48.2°F9.0°C 87% 10.1 mph SW16.3 kmh SW 19.0 mph30.6 kmh 30.15 in1021.0 mb 0.00 in0.0 mm 0.00 in0.0 mm 0.04 in1.0 mm
10:29 AM 53.8°F12.1°C 50.9°F10.5°C 90% 6.0 mph WSW9.7 kmh WSW -- 29.83 in1010.2 mb 0.00 in0.0 mm 0.00 in0.0 mm 0.01 in0.3 mm
10:26 AM 51.6°F10.9°C 48.2°F9.0°C 88% 8.9 mph SW14.3 kmh SW 17.0 mph27.4 kmh 30.15 in1021.0 mb 0.00 in0.0 mm 0.00 in0.0 mm 0.04 in1.0 mm
10:24 AM 53.8°F12.1°C 50.9°F10.5°C 90% 6.0 mph WSW9.7 kmh WSW -- 29.83 in1010.2 mb 0.00 in0.0 mm 0.00 in0.0 mm 0.01 in0.3 mm
10:21 AM 51.4°F10.8°C 48.0°F8.9°C 88% 8.1 mph SW13.0 kmh SW 15.0 mph24.1 kmh 30.15 in1021.0 mb 0.00 in0.0 mm 0.00 in0.0 mm 0.04 in1.0 mm
10:19 AM 53.4°F11.9°C 50.6°F10.3°C 90% 6.0 mph WSW9.7 kmh WSW -- 29.83 in1010.2 mb 0.00 in0.0 mm 0.00 in0.0 mm 0.01 in0.3 mm
10:16 AM 51.3°F10.7°C 48.2°F9.0°C 89% 8.9 mph SW14.3 kmh SW 15.0 mph24.1 kmh 30.15 in1021.0 mb 0.00 in0.0 mm 0.00 in0.0 mm 0.04 in1.0 mm
10:14 AM 53.4°F11.9°C 50.6°F10.3°C 90% 6.0 mph WSW9.7 kmh WSW -- 29.83 in1010.2 mb 0.00 in0.0 mm 0.00 in0.0 mm 0.01 in0.3 mm
10:11 AM 51.3°F10.7°C 48.2°F9.0°C 89% 8.9 mph SW14.3 kmh SW 17.0 mph27.4 kmh 30.15 in1021.0 mb 0.00 in0.0 mm 0.00 in0.0 mm 0.04 in1.0 mm
10:09 AM 53.2°F11.8°C 50.4°F10.2°C 90% 9.0 mph WSW14.5 kmh WSW -- 29.82 in1009.8 mb 0.00 in0.0 mm 0.00 in0.0 mm 0.01 in0.3 mm
10:06 AM 51.3°F10.7°C 48.2°F9.0°C 89% 10.1 mph SW16.3 kmh SW 21.9 mph35.2 kmh 30.15 in1021.0 mb 0.00 in0.0 mm 0.00 in0.0 mm 0.04 in1.0 mm
10:04 AM 53.2°F11.8°C 50.4°F10.2°C 90% 9.0 mph WSW14.5 kmh WSW -- 29.82 in1009.8 mb 0.00 in0.0 mm 0.00 in0.0 mm 0.01 in0.3 mm
10:01 AM 51.1°F10.6°C 48.0°F8.9°C 89% 11.0 mph SW17.7 kmh SW 17.9 mph28.8 kmh 30.14 in1020.7 mb 0.00 in0.0 mm 0.00 in0.0 mm 0.04 in1.0 mm
09:59 AM 52.7°F11.5°C 49.8°F9.9°C 90% 8.0 mph WSW12.9 kmh WSW -- 29.82 in1009.8 mb 0.00 in0.0 mm 0.00 in0.0 mm 0.01 in0.3 mm
09:56 AM 50.9°F10.5°C 48.0°F8.9°C 90% 10.1 mph SW16.3 kmh SW 23.0 mph37.0 kmh 30.14 in1020.7 mb 0.00 in0.0 mm 0.00 in0.0 mm 0.04 in1.0 mm
09:54 AM 52.7°F11.5°C 49.8°F9.9°C 90% 8.0 mph WSW12.9 kmh WSW -- 29.82 in1009.8 mb 0.00 in0.0 mm 0.00 in0.0 mm 0.01 in0.3 mm
09:51 AM 50.5°F10.3°C 47.7°F8.7°C 90% 8.1 mph SW13.0 kmh SW 17.9 mph28.8 kmh 30.14 in1020.7 mb 0.00 in0.0 mm 0.00 in0.0 mm 0.04 in1.0 mm
09:49 AM 52.7°F11.5°C 49.8°F9.9°C 90% 8.0 mph WSW12.9 kmh WSW -- 29.82 in1009.8 mb 0.00 in0.0 mm 0.00 in0.0 mm 0.01 in0.3 mm
09:46 AM 50.5°F10.3°C 48.0°F8.9°C 91% 8.9 mph SSW14.3 kmh SSW 17.0 mph27.4 kmh 30.14 in1020.7 mb 0.00 in0.0 mm 0.00 in0.0 mm 0.04 in1.0 mm
09:44 AM 52.7°F11.5°C 49.8°F9.9°C 90% 8.0 mph WSW12.9 kmh WSW -- 29.82 in1009.8 mb 0.00 in0.0 mm 0.00 in0.0 mm 0.01 in0.3 mm
09:41 AM 50.5°F10.3°C 48.0°F8.9°C 91% 8.9 mph SW14.3 kmh SW 15.0 mph24.1 kmh 30.14 in1020.7 mb 0.00 in0.0 mm 0.00 in0.0 mm 0.04 in1.0 mm
09:39 AM 52.7°F11.5°C 49.8°F9.9°C 90% 6.0 mph WSW9.7 kmh WSW -- 29.81 in1009.5 mb 0.00 in0.0 mm 0.00 in0.0 mm 0.01 in0.3 mm
09:36 AM 50.5°F10.3°C 48.0°F8.9°C 91% 8.9 mph SW14.3 kmh SW 16.1 mph25.9 kmh 30.14 in1020.7 mb 0.00 in0.0 mm 0.00 in0.0 mm 0.04 in1.0 mm
09:34 AM 52.7°F11.5°C 49.8°F9.9°C 90% 6.0 mph WSW9.7 kmh WSW -- 29.81 in1009.5 mb 0.00 in0.0 mm 0.00 in0.0 mm 0.01 in0.3 mm
09:31 AM 50.5°F10.3°C 48.0°F8.9°C 91% 8.1 mph SSW13.0 kmh SSW 16.1 mph25.9 kmh 30.13 in1020.3 mb 0.00 in0.0 mm 0.00 in0.0 mm 0.04 in1.0 mm
09:29 AM 52.3°F11.3°C 49.5°F9.7°C 90% 6.0 mph WSW9.7 kmh WSW -- 29.81 in1009.5 mb 0.00 in0.0 mm 0.00 in0.0 mm 0.01 in0.3 mm
09:26 AM 50.4°F10.2°C 48.2°F9.0°C 92% 8.1 mph SSW13.0 kmh SSW 21.0 mph33.8 kmh 30.13 in1020.3 mb 0.00 in0.0 mm 0.00 in0.0 mm 0.04 in1.0 mm
09:24 AM 52.3°F11.3°C 49.5°F9.7°C 90% 6.0 mph WSW9.7 kmh WSW -- 29.81 in1009.5 mb 0.00 in0.0 mm 0.00 in0.0 mm 0.01 in0.3 mm
09:21 AM 50.4°F10.2°C 48.2°F9.0°C 92% 8.9 mph SSW14.3 kmh SSW 15.0 mph24.1 kmh 30.12 in1020.0 mb 0.00 in0.0 mm 0.00 in0.0 mm 0.04 in1.0 mm
09:19 AM 52.2°F11.2°C 49.3°F9.6°C 90% 8.0 mph WSW12.9 kmh WSW -- 29.81 in1009.5 mb 0.00 in0.0 mm 0.00 in0.0 mm 0.01 in0.3 mm
09:16 AM 50.4°F10.2°C 48.2°F9.0°C 92% 10.1 mph SW16.3 kmh SW 17.0 mph27.4 kmh 30.13 in1020.3 mb 0.00 in0.0 mm 0.00 in0.0 mm 0.04 in1.0 mm
09:14 AM 52.2°F11.2°C 49.3°F9.6°C 90% 8.0 mph WSW12.9 kmh WSW -- 29.81 in1009.5 mb 0.00 in0.0 mm 0.00 in0.0 mm 0.01 in0.3 mm
09:11 AM 50.4°F10.2°C 48.2°F9.0°C 92% 11.0 mph SW17.7 kmh SW 19.9 mph32.0 kmh 30.13 in1020.3 mb 0.00 in0.0 mm 0.00 in0.0 mm 0.04 in1.0 mm
09:09 AM 52.0°F11.1°C 49.1°F9.5°C 90% 6.0 mph WSW9.7 kmh WSW -- 29.81 in1009.5 mb 0.00 in0.0 mm 0.00 in0.0 mm 0.01 in0.3 mm
09:06 AM 50.5°F10.3°C 48.0°F8.9°C 91% 10.1 mph SW16.3 kmh SW 25.1 mph40.4 kmh 30.13 in1020.3 mb 0.00 in0.0 mm 0.00 in0.0 mm 0.04 in1.0 mm
09:04 AM 52.0°F11.1°C 49.1°F9.5°C 90% 6.0 mph WSW9.7 kmh WSW -- 29.81 in1009.5 mb 0.00 in0.0 mm 0.00 in0.0 mm 0.01 in0.3 mm
09:01 AM 50.7°F10.4°C 47.8°F8.8°C 90% 10.1 mph SW16.3 kmh SW 19.9 mph32.0 kmh 30.13 in1020.3 mb 0.00 in0.0 mm 0.00 in0.0 mm 0.04 in1.0 mm
08:59 AM 51.6°F10.9°C 48.8°F9.3°C 90% 8.0 mph WSW12.9 kmh WSW -- 29.81 in1009.5 mb 0.00 in0.0 mm 0.00 in0.0 mm 0.01 in0.3 mm
08:56 AM 50.9°F10.5°C 47.8°F8.8°C 89% 10.1 mph WSW16.3 kmh WSW 21.0 mph33.8 kmh 30.12 in1020.0 mb 0.00 in0.0 mm 0.00 in0.0 mm 0.04 in1.0 mm
08:54 AM 51.6°F10.9°C 48.8°F9.3°C 90% 8.0 mph WSW12.9 kmh WSW -- 29.81 in1009.5 mb 0.00 in0.0 mm 0.00 in0.0 mm 0.01 in0.3 mm
08:51 AM 50.9°F10.5°C 47.8°F8.8°C 89% 10.1 mph SW16.3 kmh SW 17.0 mph27.4 kmh 30.12 in1020.0 mb 0.00 in0.0 mm 0.00 in0.0 mm 0.04 in1.0 mm
08:49 AM 51.4°F10.8°C 48.6°F9.2°C 90% 8.0 mph WSW12.9 kmh WSW -- 29.80 in1009.1 mb 0.00 in0.0 mm 0.00 in0.0 mm 0.01 in0.3 mm
08:46 AM 51.1°F10.6°C 48.0°F8.9°C 89% 10.1 mph WSW16.3 kmh WSW 21.9 mph35.2 kmh 30.12 in1020.0 mb 0.00 in0.0 mm 0.00 in0.0 mm 0.04 in1.0 mm
08:44 AM 51.4°F10.8°C 48.6°F9.2°C 90% 8.0 mph WSW12.9 kmh WSW -- 29.80 in1009.1 mb 0.00 in0.0 mm 0.00 in0.0 mm 0.01 in0.3 mm
08:41 AM 51.1°F10.6°C 48.0°F8.9°C 89% 10.1 mph SW16.3 kmh SW 23.9 mph38.5 kmh 30.11 in1019.6 mb 0.00 in0.0 mm 0.00 in0.0 mm 0.04 in1.0 mm
08:39 AM 51.4°F10.8°C 48.9°F9.4°C 91% 7.0 mph WSW11.3 kmh WSW -- 29.80 in1009.1 mb 0.00 in0.0 mm 0.00 in0.0 mm 0.01 in0.3 mm
08:36 AM 51.1°F10.6°C 48.0°F8.9°C 89% 8.9 mph SW14.3 kmh SW 17.9 mph28.8 kmh 30.11 in1019.6 mb 0.00 in0.0 mm 0.00 in0.0 mm 0.04 in1.0 mm
08:34 AM 51.4°F10.8°C 48.9°F9.4°C 91% 7.0 mph WSW11.3 kmh WSW -- 29.80 in1009.1 mb 0.00 in0.0 mm 0.00 in0.0 mm 0.01 in0.3 mm
08:31 AM 51.1°F10.6°C 48.0°F8.9°C 89% 10.1 mph SW16.3 kmh SW 17.0 mph27.4 kmh 30.12 in1020.0 mb 0.01 in0.3 mm 0.30 in7.6 mm 0.04 in1.0 mm
08:29 AM 51.4°F10.8°C 48.9°F9.4°C 91% 8.0 mph WSW12.9 kmh WSW -- 29.80 in1009.1 mb 0.00 in0.0 mm 0.00 in0.0 mm 0.01 in0.3 mm
08:26 AM 51.1°F10.6°C 48.0°F8.9°C 89% 8.9 mph SW14.3 kmh SW 21.9 mph35.2 kmh 30.11 in1019.6 mb 0.01 in0.3 mm 0.30 in7.6 mm 0.04 in1.0 mm
08:24 AM 51.4°F10.8°C 48.9°F9.4°C 91% 8.0 mph WSW12.9 kmh WSW -- 29.80 in1009.1 mb 0.00 in0.0 mm 0.00 in0.0 mm 0.01 in0.3 mm
08:21 AM 50.9°F10.5°C 47.8°F8.8°C 89% 8.1 mph SW13.0 kmh SW 19.0 mph30.6 kmh 30.11 in1019.6 mb 0.01 in0.3 mm 0.30 in7.6 mm 0.04 in1.0 mm
08:19 AM 51.4°F10.8°C 48.9°F9.4°C 91% 8.0 mph WSW12.9 kmh WSW -- 29.80 in1009.1 mb 0.00 in0.0 mm 0.00 in0.0 mm 0.01 in0.3 mm
08:16 AM 50.7°F10.4°C 47.8°F8.8°C 90% 8.1 mph SW13.0 kmh SW 16.1 mph25.9 kmh 30.11 in1019.6 mb 0.01 in0.3 mm 0.30 in7.6 mm 0.04 in1.0 mm
08:14 AM 51.4°F10.8°C 48.9°F9.4°C 91% 8.0 mph WSW12.9 kmh WSW -- 29.80 in1009.1 mb 0.00 in0.0 mm 0.00 in0.0 mm 0.01 in0.3 mm
08:11 AM 50.7°F10.4°C 47.8°F8.8°C 90% 8.9 mph S14.3 kmh S 21.9 mph35.2 kmh 30.11 in1019.6 mb 0.01 in0.3 mm 0.30 in7.6 mm 0.04 in1.0 mm
08:09 AM 51.6°F10.9°C 49.1°F9.5°C 91% 10.0 mph WSW16.1 kmh WSW -- 29.80 in1009.1 mb 0.00 in0.0 mm 0.00 in0.0 mm 0.01 in0.3 mm
08:06 AM 50.7°F10.4°C 47.8°F8.8°C 90% 10.1 mph WSW16.3 kmh WSW 19.0 mph30.6 kmh 30.11 in1019.6 mb 0.01 in0.3 mm 0.30 in7.6 mm 0.04 in1.0 mm
08:04 AM 51.6°F10.9°C 49.1°F9.5°C 91% 10.0 mph WSW16.1 kmh WSW -- 29.80 in1009.1 mb 0.00 in0.0 mm 0.00 in0.0 mm 0.01 in0.3 mm
08:01 AM 50.5°F10.3°C 48.0°F8.9°C 91% 10.1 mph S16.3 kmh S 21.9 mph35.2 kmh 30.11 in1019.6 mb 0.01 in0.3 mm 0.01 in0.3 mm 0.04 in1.0 mm
07:59 AM 51.6°F10.9°C 49.1°F9.5°C 91% 8.0 mph WSW12.9 kmh WSW -- 29.78 in1008.5 mb 0.00 in0.0 mm 0.00 in0.0 mm 0.01 in0.3 mm
07:56 AM 50.5°F10.3°C 48.0°F8.9°C 91% 11.0 mph SSW17.7 kmh SSW 21.0 mph33.8 kmh 30.11 in1019.6 mb 0.01 in0.3 mm 0.30 in7.6 mm 0.04 in1.0 mm
07:54 AM 51.6°F10.9°C 49.1°F9.5°C 91% 8.0 mph WSW12.9 kmh WSW -- 29.78 in1008.5 mb 0.00 in0.0 mm 0.00 in0.0 mm 0.01 in0.3 mm
07:51 AM 50.4°F10.2°C 48.2°F9.0°C 92% 10.1 mph SSW16.3 kmh SSW 19.9 mph32.0 kmh 30.10 in1019.3 mb 0.01 in0.3 mm 0.30 in7.6 mm 0.04 in1.0 mm
07:49 AM 51.8°F11.0°C 49.3°F9.6°C 91% 9.0 mph WSW14.5 kmh WSW -- 29.77 in1008.1 mb 0.00 in0.0 mm 0.00 in0.0 mm 0.01 in0.3 mm
07:46 AM 50.2°F10.1°C 48.0°F8.9°C 92% 10.1 mph S16.3 kmh S 23.9 mph38.5 kmh 30.10 in1019.3 mb 0.01 in0.3 mm 0.30 in7.6 mm 0.04 in1.0 mm
07:44 AM 51.8°F11.0°C 49.3°F9.6°C 91% 9.0 mph WSW14.5 kmh WSW -- 29.77 in1008.1 mb 0.00 in0.0 mm 0.00 in0.0 mm 0.01 in0.3 mm
07:41 AM 50.2°F10.1°C 48.2°F9.0°C 93% 11.0 mph SSE17.7 kmh SSE 19.0 mph30.6 kmh 30.10 in1019.3 mb 0.01 in0.3 mm 0.30 in7.6 mm 0.04 in1.0 mm
07:39 AM 51.6°F10.9°C 49.1°F9.5°C 91% 7.0 mph WSW11.3 kmh WSW -- 29.77 in1008.1 mb 0.00 in0.0 mm 0.00 in0.0 mm 0.01 in0.3 mm
07:36 AM 50.2°F10.1°C 48.2°F9.0°C 93% 10.1 mph SSW16.3 kmh SSW 19.0 mph30.6 kmh 30.10 in1019.3 mb 0.01 in0.3 mm 0.30 in7.6 mm 0.04 in1.0 mm
07:34 AM 51.6°F10.9°C 49.1°F9.5°C 91% 7.0 mph WSW11.3 kmh WSW -- 29.77 in1008.1 mb 0.00 in0.0 mm 0.00 in0.0 mm 0.01 in0.3 mm
07:31 AM 50.4°F10.2°C 48.2°F9.0°C 92% 10.1 mph SSW16.3 kmh SSW 19.0 mph30.6 kmh 30.09 in1019.0 mb 0.00 in0.0 mm 0.00 in0.0 mm 0.03 in0.8 mm
07:29 AM 51.3°F10.7°C 48.7°F9.3°C 91% 6.0 mph WSW9.7 kmh WSW -- 29.77 in1008.1 mb 0.00 in0.0 mm 0.00 in0.0 mm 0.01 in0.3 mm
07:26 AM 50.2°F10.1°C 48.0°F8.9°C 92% 8.9 mph SSW14.3 kmh SSW 17.9 mph28.8 kmh 30.10 in1019.3 mb 0.00 in0.0 mm 0.00 in0.0 mm 0.03 in0.8 mm
07:24 AM 51.3°F10.7°C 48.7°F9.3°C 91% 6.0 mph WSW9.7 kmh WSW -- 29.77 in1008.1 mb 0.00 in0.0 mm 0.00 in0.0 mm 0.01 in0.3 mm
07:21 AM 50.2°F10.1°C 48.2°F9.0°C 93% 8.9 mph SW14.3 kmh SW 15.0 mph24.1 kmh 30.10 in1019.3 mb 0.00 in0.0 mm 0.00 in0.0 mm 0.03 in0.8 mm
07:19 AM 51.1°F10.6°C 48.2°F9.0°C 90% 5.0 mph WSW8.0 kmh WSW -- 29.77 in1008.1 mb 0.00 in0.0 mm 0.00 in0.0 mm 0.01 in0.3 mm
07:16 AM 50.2°F10.1°C 48.2°F9.0°C 93% 8.9 mph WSW14.3 kmh WSW 15.0 mph24.1 kmh 30.09 in1019.0 mb 0.00 in0.0 mm 0.00 in0.0 mm 0.03 in0.8 mm
07:14 AM 51.1°F10.6°C 48.2°F9.0°C 90% 5.0 mph WSW8.0 kmh WSW -- 29.77 in1008.1 mb 0.00 in0.0 mm 0.00 in0.0 mm 0.01 in0.3 mm
07:11 AM 49.8°F9.9°C 47.8°F8.8°C 93% 8.9 mph WSW14.3 kmh WSW 17.9 mph28.8 kmh 30.09 in1019.0 mb 0.00 in0.0 mm 0.00 in0.0 mm 0.03 in0.8 mm
07:09 AM 50.9°F10.5°C 48.1°F8.9°C 90% 6.0 mph WSW9.7 kmh WSW -- 29.77 in1008.1 mb 0.00 in0.0 mm 0.00 in0.0 mm 0.01 in0.3 mm
07:06 AM 49.6°F9.8°C 48.0°F8.9°C 94% 8.1 mph SW13.0 kmh SW 15.0 mph24.1 kmh 30.09 in1019.0 mb 0.00 in0.0 mm 0.00 in0.0 mm 0.03 in0.8 mm
07:04 AM 50.9°F10.5°C 48.1°F8.9°C 90% 6.0 mph WSW9.7 kmh WSW -- 29.77 in1008.1 mb 0.00 in0.0 mm 0.00 in0.0 mm 0.01 in0.3 mm
07:01 AM 49.6°F9.8°C 48.0°F8.9°C 94% 8.1 mph SSW13.0 kmh SSW 21.9 mph35.2 kmh 30.09 in1019.0 mb 0.00 in0.0 mm 0.00 in0.0 mm 0.03 in0.8 mm
06:59 AM 50.9°F10.5°C 48.1°F8.9°C 90% 8.0 mph WSW12.9 kmh WSW -- 29.77 in1008.1 mb 0.00 in0.0 mm 0.00 in0.0 mm 0.01 in0.3 mm
06:56 AM 49.5°F9.7°C 48.0°F8.9°C 95% 8.1 mph SE13.0 kmh SE 14.1 mph22.7 kmh 30.09 in1019.0 mb 0.00 in0.0 mm 0.00 in0.0 mm 0.03 in0.8 mm
06:54 AM 50.9°F10.5°C 48.1°F8.9°C 90% 8.0 mph WSW12.9 kmh WSW -- 29.77 in1008.1 mb 0.00 in0.0 mm 0.00 in0.0 mm 0.01 in0.3 mm
06:51 AM 49.5°F9.7°C 48.0°F8.9°C 95% 8.1 mph SW13.0 kmh SW 15.0 mph24.1 kmh 30.09 in1019.0 mb 0.01 in0.3 mm 0.30 in7.6 mm 0.03 in0.8 mm
06:49 AM 50.9°F10.5°C 48.1°F8.9°C 90% 5.0 mph WSW8.0 kmh WSW -- 29.78 in1008.5 mb 0.00 in0.0 mm 0.00 in0.0 mm 0.01 in0.3 mm
06:46 AM 49.5°F9.7°C 47.8°F8.8°C 94% 8.9 mph WSW14.3 kmh WSW 15.0 mph24.1 kmh 30.10 in1019.3 mb 0.01 in0.3 mm 0.30 in7.6 mm 0.03 in0.8 mm
06:44 AM 50.9°F10.5°C 48.1°F8.9°C 90% 5.0 mph WSW8.0 kmh WSW -- 29.78 in1008.5 mb 0.00 in0.0 mm 0.00 in0.0 mm 0.01 in0.3 mm
06:41 AM 49.3°F9.6°C 47.8°F8.8°C 95% 8.1 mph WSW13.0 kmh WSW 15.0 mph24.1 kmh 30.10 in1019.3 mb 0.01 in0.3 mm 0.30 in7.6 mm 0.03 in0.8 mm
06:39 AM 51.1°F10.6°C 48.2°F9.0°C 90% 6.0 mph WSW9.7 kmh WSW -- 29.78 in1008.5 mb 0.00 in0.0 mm 0.00 in0.0 mm 0.01 in0.3 mm
06:36 AM 49.3°F9.6°C 47.7°F8.7°C 94% 6.9 mph SW11.1 kmh SW 12.1 mph19.5 kmh 30.10 in1019.3 mb 0.01 in0.3 mm 0.30 in7.6 mm 0.03 in0.8 mm
06:34 AM 51.1°F10.6°C 48.2°F9.0°C 90% 6.0 mph WSW9.7 kmh WSW -- 29.78 in1008.5 mb 0.00 in0.0 mm 0.00 in0.0 mm 0.01 in0.3 mm
06:31 AM 49.1°F9.5°C 47.7°F8.7°C 95% 6.9 mph SW11.1 kmh SW 13.0 mph20.9 kmh 30.10 in1019.3 mb 0.01 in0.3 mm 0.30 in7.6 mm 0.03 in0.8 mm
06:29 AM 51.1°F10.6°C 48.2°F9.0°C 90% 5.0 mph WSW8.0 kmh WSW -- 29.79 in1008.8 mb 0.00 in0.0 mm 0.00 in0.0 mm 0.01 in0.3 mm
06:25 AM 49.1°F9.5°C 47.5°F8.6°C 94% 6.9 mph SSW11.1 kmh SSW 13.0 mph20.9 kmh 30.10 in1019.3 mb 0.01 in0.3 mm 0.60 in15.2 mm 0.03 in0.8 mm
06:24 AM 51.1°F10.6°C 48.2°F9.0°C 90% 5.0 mph WSW8.0 kmh WSW -- 29.79 in1008.8 mb 0.00 in0.0 mm 0.00 in0.0 mm 0.01 in0.3 mm
06:20 AM 49.1°F9.5°C 47.7°F8.7°C 95% 6.9 mph SW11.1 kmh SW 15.0 mph24.1 kmh 30.10 in1019.3 mb 0.01 in0.3 mm 0.60 in15.2 mm 0.03 in0.8 mm
06:19 AM 51.1°F10.6°C 48.2°F9.0°C 90% 5.0 mph WSW8.0 kmh WSW -- 29.79 in1008.8 mb 0.00 in0.0 mm 0.00 in0.0 mm 0.07 in1.8 mm
06:15 AM 49.1°F9.5°C 47.5°F8.6°C 94% 6.0 mph SSW9.7 kmh SSW 15.0 mph24.1 kmh 30.10 in1019.3 mb 0.01 in0.3 mm 0.60 in15.2 mm 0.03 in0.8 mm
06:14 AM 51.3°F10.7°C 48.4°F9.1°C 90% 8.0 mph WSW12.9 kmh WSW -- 29.79 in1008.8 mb 0.00 in0.0 mm 0.00 in0.0 mm 0.06 in1.5 mm
06:10 AM 49.3°F9.6°C 47.7°F8.7°C 94% 6.0 mph SW9.7 kmh SW 12.1 mph19.5 kmh 30.11 in1019.6 mb 0.01 in0.3 mm 0.60 in15.2 mm 0.03 in0.8 mm
06:09 AM 51.3°F10.7°C 48.4°F9.1°C 90% 8.0 mph WSW12.9 kmh WSW -- 29.79 in1008.8 mb 0.00 in0.0 mm 0.00 in0.0 mm 0.05 in1.3 mm
06:05 AM 49.3°F9.6°C 47.3°F8.5°C 93% 6.9 mph SW11.1 kmh SW 15.0 mph24.1 kmh 30.11 in1019.6 mb 0.01 in0.3 mm 0.60 in15.2 mm 0.03 in0.8 mm
06:04 AM 51.4°F10.8°C 48.6°F9.2°C 90% 6.0 mph WSW9.7 kmh WSW -- 29.79 in1008.8 mb 0.00 in0.0 mm 0.00 in0.0 mm 0.04 in1.0 mm
06:00 AM 49.5°F9.7°C 47.3°F8.5°C 92% 6.0 mph SW9.7 kmh SW 17.0 mph27.4 kmh 30.11 in1019.6 mb 0.01 in0.3 mm 0.01 in0.3 mm 0.03 in0.8 mm
05:59 AM 51.4°F10.8°C 48.6°F9.2°C 90% 6.0 mph WSW9.7 kmh WSW -- 29.79 in1008.8 mb 0.00 in0.0 mm 0.00 in0.0 mm 0.03 in0.8 mm
05:55 AM 49.8°F9.9°C 47.3°F8.5°C 91% 6.0 mph SSW9.7 kmh SSW 17.0 mph27.4 kmh 30.11 in1019.6 mb 0.01 in0.3 mm 0.60 in15.2 mm 0.03 in0.8 mm
05:54 AM 51.6°F10.9°C 48.8°F9.3°C 90% 6.0 mph WSW9.7 kmh WSW -- 29.79 in1008.8 mb 0.00 in0.0 mm 0.00 in0.0 mm 0.02 in0.5 mm
05:50 AM 50.2°F10.1°C 47.3°F8.5°C 90% 6.9 mph SW11.1 kmh SW 15.0 mph24.1 kmh 30.11 in1019.6 mb 0.00 in0.0 mm 0.00 in0.0 mm 0.02 in0.5 mm
05:49 AM 51.6°F10.9°C 48.8°F9.3°C 90% 6.0 mph WSW9.7 kmh WSW -- 29.79 in1008.8 mb 0.00 in0.0 mm 0.00 in0.0 mm 0.02 in0.5 mm
05:45 AM 50.5°F10.3°C 47.5°F8.6°C 89% 8.1 mph SSW13.0 kmh SSW 13.0 mph20.9 kmh 30.11 in1019.6 mb 0.00 in0.0 mm 0.00 in0.0 mm 0.02 in0.5 mm
05:44 AM 51.6°F10.9°C 48.8°F9.3°C 90% 4.0 mph WSW6.4 kmh WSW -- 29.78 in1008.5 mb 0.00 in0.0 mm 0.00 in0.0 mm 0.02 in0.5 mm
05:40 AM 50.4°F10.2°C 47.3°F8.5°C 89% 6.9 mph SSW11.1 kmh SSW 17.9 mph28.8 kmh 30.10 in1019.3 mb 0.00 in0.0 mm 0.00 in0.0 mm 0.02 in0.5 mm
05:39 AM 51.6°F10.9°C 48.8°F9.3°C 90% 4.0 mph WSW6.4 kmh WSW -- 29.78 in1008.5 mb 0.00 in0.0 mm 0.00 in0.0 mm 0.02 in0.5 mm
05:35 AM 50.4°F10.2°C 47.5°F8.6°C 90% 4.9 mph SW7.9 kmh SW 13.0 mph20.9 kmh 30.10 in1019.3 mb 0.00 in0.0 mm 0.00 in0.0 mm 0.02 in0.5 mm
05:34 AM 51.6°F10.9°C 48.8°F9.3°C 90% 6.0 mph WSW9.7 kmh WSW -- 29.79 in1008.8 mb 0.00 in0.0 mm 0.00 in0.0 mm 0.02 in0.5 mm
05:30 AM 50.5°F10.3°C 47.7°F8.7°C 90% 6.0 mph SSW9.7 kmh SSW 13.0 mph20.9 kmh 30.10 in1019.3 mb 0.00 in0.0 mm 0.00 in0.0 mm 0.02 in0.5 mm
05:29 AM 51.6°F10.9°C 48.8°F9.3°C 90% 6.0 mph WSW9.7 kmh WSW -- 29.79 in1008.8 mb 0.00 in0.0 mm 0.00 in0.0 mm 0.02 in0.5 mm
05:25 AM 50.5°F10.3°C 47.7°F8.7°C 90% 6.9 mph SW11.1 kmh SW 14.1 mph22.7 kmh 30.10 in1019.3 mb 0.00 in0.0 mm 0.00 in0.0 mm 0.02 in0.5 mm
05:24 AM 51.8°F11.0°C 49.0°F9.4°C 90% 4.0 mph WSW6.4 kmh WSW -- 29.80 in1009.1 mb 0.00 in0.0 mm 0.00 in0.0 mm 0.02 in0.5 mm
05:20 AM 50.5°F10.3°C 47.7°F8.7°C 90% 8.1 mph SW13.0 kmh SW 13.0 mph20.9 kmh 30.10 in1019.3 mb 0.00 in0.0 mm 0.00 in0.0 mm 0.02 in0.5 mm
05:19 AM 51.8°F11.0°C 49.0°F9.4°C 90% 4.0 mph WSW6.4 kmh WSW -- 29.80 in1009.1 mb 0.00 in0.0 mm 0.00 in0.0 mm 0.02 in0.5 mm
05:15 AM 50.5°F10.3°C 47.7°F8.7°C 90% 6.9 mph SW11.1 kmh SW 17.0 mph27.4 kmh 30.11 in1019.6 mb 0.00 in0.0 mm 0.00 in0.0 mm 0.02 in0.5 mm
05:14 AM 51.8°F11.0°C 49.0°F9.4°C 90% 9.0 mph WSW14.5 kmh WSW -- 29.78 in1008.5 mb 0.00 in0.0 mm 0.00 in0.0 mm 0.02 in0.5 mm
05:10 AM 50.5°F10.3°C 47.7°F8.7°C 90% 6.9 mph S11.1 kmh S 17.0 mph27.4 kmh 30.11 in1019.6 mb 0.00 in0.0 mm 0.00 in0.0 mm 0.02 in0.5 mm
05:09 AM 51.8°F11.0°C 49.0°F9.4°C 90% 9.0 mph WSW14.5 kmh WSW -- 29.78 in1008.5 mb 0.00 in0.0 mm 0.00 in0.0 mm 0.02 in0.5 mm
05:05 AM 50.5°F10.3°C 47.7°F8.7°C 90% 8.1 mph SW13.0 kmh SW 15.0 mph24.1 kmh 30.11 in1019.6 mb 0.00 in0.0 mm 0.00 in0.0 mm 0.02 in0.5 mm
05:04 AM 52.0°F11.1°C 49.1°F9.5°C 90% 9.0 mph WSW14.5 kmh WSW -- 29.79 in1008.8 mb 0.00 in0.0 mm 0.00 in0.0 mm 0.02 in0.5 mm
05:00 AM 50.7°F10.4°C 47.8°F8.8°C 90% 10.1 mph SSW16.3 kmh SSW 21.9 mph35.2 kmh 30.10 in1019.3 mb 0.00 in0.0 mm 0.00 in0.0 mm 0.02 in0.5 mm
04:59 AM 52.0°F11.1°C 49.1°F9.5°C 90% 9.0 mph WSW14.5 kmh WSW -- 29.79 in1008.8 mb 0.00 in0.0 mm 0.00 in0.0 mm 0.02 in0.5 mm
04:55 AM 50.5°F10.3°C 47.7°F8.7°C 90% 8.9 mph SSW14.3 kmh SSW 21.0 mph33.8 kmh 30.11 in1019.6 mb 0.00 in0.0 mm 0.00 in0.0 mm 0.02 in0.5 mm
04:54 AM 52.0°F11.1°C 49.1°F9.5°C 90% 8.0 mph WSW12.9 kmh WSW -- 29.78 in1008.5 mb 0.00 in0.0 mm 0.00 in0.0 mm 0.02 in0.5 mm
04:50 AM 50.5°F10.3°C 48.0°F8.9°C 91% 8.9 mph SSW14.3 kmh SSW 17.0 mph27.4 kmh 30.11 in1019.6 mb 0.00 in0.0 mm 0.00 in0.0 mm 0.02 in0.5 mm
04:49 AM 52.0°F11.1°C 49.1°F9.5°C 90% 8.0 mph WSW12.9 kmh WSW -- 29.78 in1008.5 mb 0.00 in0.0 mm 0.00 in0.0 mm 0.02 in0.5 mm
04:45 AM 50.5°F10.3°C 48.0°F8.9°C 91% 8.9 mph SW14.3 kmh SW 17.9 mph28.8 kmh 30.11 in1019.6 mb 0.00 in0.0 mm 0.00 in0.0 mm 0.02 in0.5 mm
04:44 AM 52.0°F11.1°C 49.1°F9.5°C 90% 6.0 mph WSW9.7 kmh WSW -- 29.79 in1008.8 mb 0.00 in0.0 mm 0.00 in0.0 mm 0.02 in0.5 mm
04:40 AM 50.4°F10.2°C 47.8°F8.8°C 91% 8.9 mph SSW14.3 kmh SSW 19.0 mph30.6 kmh 30.11 in1019.6 mb 0.00 in0.0 mm 0.00 in0.0 mm 0.02 in0.5 mm
04:39 AM 52.0°F11.1°C 49.1°F9.5°C 90% 6.0 mph WSW9.7 kmh WSW -- 29.79 in1008.8 mb 0.00 in0.0 mm 0.00 in0.0 mm 0.02 in0.5 mm
04:35 AM 50.4°F10.2°C 47.8°F8.8°C 91% 8.1 mph SW13.0 kmh SW 16.1 mph25.9 kmh 30.11 in1019.6 mb 0.00 in0.0 mm 0.00 in0.0 mm 0.02 in0.5 mm
04:34 AM 51.8°F11.0°C 49.0°F9.4°C 90% 6.0 mph WSW9.7 kmh WSW -- 29.79 in1008.8 mb 0.00 in0.0 mm 0.00 in0.0 mm 0.02 in0.5 mm
04:30 AM 50.2°F10.1°C 47.7°F8.7°C 91% 8.1 mph SW13.0 kmh SW 15.0 mph24.1 kmh 30.11 in1019.6 mb 0.00 in0.0 mm 0.00 in0.0 mm 0.02 in0.5 mm
04:29 AM 51.8°F11.0°C 49.0°F9.4°C 90% 6.0 mph WSW9.7 kmh WSW -- 29.79 in1008.8 mb 0.00 in0.0 mm 0.00 in0.0 mm 0.02 in0.5 mm
04:25 AM 50.2°F10.1°C 47.7°F8.7°C 91% 8.1 mph SSW13.0 kmh SSW 15.0 mph24.1 kmh 30.11 in1019.6 mb 0.00 in0.0 mm 0.00 in0.0 mm 0.02 in0.5 mm
04:24 AM 51.6°F10.9°C 48.8°F9.3°C 90% 6.0 mph WSW9.7 kmh WSW -- 29.79 in1008.8 mb 0.00 in0.0 mm 0.00 in0.0 mm 0.02 in0.5 mm
04:20 AM 50.2°F10.1°C 47.7°F8.7°C 91% 6.9 mph SW11.1 kmh SW 14.1 mph22.7 kmh 30.11 in1019.6 mb 0.00 in0.0 mm 0.00 in0.0 mm 0.02 in0.5 mm
04:19 AM 51.6°F10.9°C 48.8°F9.3°C 90% 6.0 mph WSW9.7 kmh WSW -- 29.79 in1008.8 mb 0.00 in0.0 mm 0.00 in0.0 mm 0.02 in0.5 mm
04:15 AM 50.4°F10.2°C 47.8°F8.8°C 91% 8.1 mph SW13.0 kmh SW 14.1 mph22.7 kmh 30.11 in1019.6 mb 0.00 in0.0 mm 0.00 in0.0 mm 0.02 in0.5 mm
04:14 AM 51.4°F10.8°C 48.6°F9.2°C 90% 6.0 mph WSW9.7 kmh WSW -- 29.79 in1008.8 mb 0.00 in0.0 mm 0.00 in0.0 mm 0.02 in0.5 mm
04:10 AM 50.4°F10.2°C 47.5°F8.6°C 90% 6.9 mph SSW11.1 kmh SSW 16.1 mph25.9 kmh 30.11 in1019.6 mb 0.00 in0.0 mm 0.00 in0.0 mm 0.02 in0.5 mm
04:09 AM 51.4°F10.8°C 48.6°F9.2°C 90% 6.0 mph WSW9.7 kmh WSW -- 29.79 in1008.8 mb 0.00 in0.0 mm 0.00 in0.0 mm 0.02 in0.5 mm
04:05 AM 50.4°F10.2°C 47.5°F8.6°C 90% 6.0 mph SW9.7 kmh SW 11.0 mph17.7 kmh 30.11 in1019.6 mb 0.00 in0.0 mm 0.00 in0.0 mm 0.02 in0.5 mm
04:04 AM 51.4°F10.8°C 48.6°F9.2°C 90% 6.0 mph WSW9.7 kmh WSW -- 29.79 in1008.8 mb 0.00 in0.0 mm 0.00 in0.0 mm 0.02 in0.5 mm
04:00 AM 50.4°F10.2°C 47.5°F8.6°C 90% 6.9 mph WSW11.1 kmh WSW 16.1 mph25.9 kmh 30.11 in1019.6 mb 0.00 in0.0 mm 0.00 in0.0 mm 0.02 in0.5 mm
03:59 AM 51.4°F10.8°C 48.6°F9.2°C 90% 6.0 mph WSW9.7 kmh WSW -- 29.79 in1008.8 mb 0.00 in0.0 mm 0.00 in0.0 mm 0.02 in0.5 mm
03:55 AM 50.5°F10.3°C 47.7°F8.7°C 90% 6.0 mph SW9.7 kmh SW 13.0 mph20.9 kmh 30.11 in1019.6 mb 0.00 in0.0 mm 0.00 in0.0 mm 0.02 in0.5 mm
03:54 AM 51.3°F10.7°C 48.4°F9.1°C 90% 9.0 mph WSW14.5 kmh WSW -- 29.79 in1008.8 mb 0.00 in0.0 mm 0.00 in0.0 mm 0.02 in0.5 mm
03:50 AM 50.5°F10.3°C 47.7°F8.7°C 90% 6.9 mph SW11.1 kmh SW 13.0 mph20.9 kmh 30.11 in1019.6 mb 0.00 in0.0 mm 0.00 in0.0 mm 0.02 in0.5 mm
03:49 AM 51.3°F10.7°C 48.4°F9.1°C 90% 9.0 mph WSW14.5 kmh WSW -- 29.79 in1008.8 mb 0.00 in0.0 mm 0.00 in0.0 mm 0.02 in0.5 mm
03:45 AM 50.5°F10.3°C 47.5°F8.6°C 89% 8.1 mph WSW13.0 kmh WSW 15.0 mph24.1 kmh 30.11 in1019.6 mb 0.00 in0.0 mm 0.00 in0.0 mm 0.02 in0.5 mm
03:44 AM 51.3°F10.7°C 48.4°F9.1°C 90% 10.0 mph WSW16.1 kmh WSW -- 29.79 in1008.8 mb 0.00 in0.0 mm 0.00 in0.0 mm 0.02 in0.5 mm
03:40 AM 50.5°F10.3°C 47.5°F8.6°C 89% 8.1 mph WSW13.0 kmh WSW 16.1 mph25.9 kmh 30.11 in1019.6 mb 0.00 in0.0 mm 0.00 in0.0 mm 0.02 in0.5 mm
03:39 AM 51.3°F10.7°C 48.4°F9.1°C 90% 10.0 mph WSW16.1 kmh WSW -- 29.79 in1008.8 mb 0.00 in0.0 mm 0.00 in0.0 mm 0.02 in0.5 mm
03:35 AM 50.5°F10.3°C 47.5°F8.6°C 89% 8.1 mph SSW13.0 kmh SSW 16.1 mph25.9 kmh 30.11 in1019.6 mb 0.00 in0.0 mm 0.00 in0.0 mm 0.02 in0.5 mm
03:34 AM 51.4°F10.8°C 48.6°F9.2°C 90% 9.0 mph WSW14.5 kmh WSW -- 29.79 in1008.8 mb 0.00 in0.0 mm 0.00 in0.0 mm 0.02 in0.5 mm
03:30 AM 50.5°F10.3°C 47.5°F8.6°C 89% 8.1 mph WSW13.0 kmh WSW 17.0 mph27.4 kmh 30.11 in1019.6 mb 0.00 in0.0 mm 0.00 in0.0 mm 0.02 in0.5 mm
03:29 AM 51.4°F10.8°C 48.6°F9.2°C 90% 9.0 mph WSW14.5 kmh WSW -- 29.79 in1008.8 mb 0.00 in0.0 mm 0.00 in0.0 mm 0.02 in0.5 mm
03:25 AM 50.7°F10.4°C 47.8°F8.8°C 90% 8.1 mph SW13.0 kmh SW 19.0 mph30.6 kmh 30.11 in1019.6 mb 0.00 in0.0 mm 0.00 in0.0 mm 0.02 in0.5 mm
03:24 AM 51.4°F10.8°C 48.6°F9.2°C 90% 6.0 mph WSW9.7 kmh WSW -- 29.79 in1008.8 mb 0.00 in0.0 mm 0.00 in0.0 mm 0.02 in0.5 mm
03:20 AM 50.7°F10.4°C 47.8°F8.8°C 90% 8.9 mph SW14.3 kmh SW 17.9 mph28.8 kmh 30.11 in1019.6 mb 0.00 in0.0 mm 0.00 in0.0 mm 0.02 in0.5 mm
03:19 AM 51.4°F10.8°C 48.6°F9.2°C 90% 6.0 mph WSW9.7 kmh WSW -- 29.79 in1008.8 mb 0.00 in0.0 mm 0.00 in0.0 mm 0.02 in0.5 mm
03:15 AM 50.7°F10.4°C 47.8°F8.8°C 90% 8.9 mph SW14.3 kmh SW 21.0 mph33.8 kmh 30.11 in1019.6 mb 0.00 in0.0 mm 0.00 in0.0 mm 0.02 in0.5 mm
03:14 AM 51.4°F10.8°C 48.6°F9.2°C 90% 8.0 mph WSW12.9 kmh WSW -- 29.79 in1008.8 mb 0.00 in0.0 mm 0.00 in0.0 mm 0.02 in0.5 mm
03:10 AM 50.5°F10.3°C 48.0°F8.9°C 91% 8.9 mph WSW14.3 kmh WSW 19.0 mph30.6 kmh 30.11 in1019.6 mb 0.00 in0.0 mm 0.00 in0.0 mm 0.02 in0.5 mm
03:09 AM 51.4°F10.8°C 48.6°F9.2°C 90% 8.0 mph WSW12.9 kmh WSW -- 29.79 in1008.8 mb 0.00 in0.0 mm 0.00 in0.0 mm 0.02 in0.5 mm
03:05 AM 50.5°F10.3°C 48.0°F8.9°C 91% 8.1 mph SW13.0 kmh SW 17.9 mph28.8 kmh 30.11 in1019.6 mb 0.00 in0.0 mm 0.00 in0.0 mm 0.02 in0.5 mm
03:04 AM 51.4°F10.8°C 48.6°F9.2°C 90% 6.0 mph WSW9.7 kmh WSW -- 29.78 in1008.5 mb 0.00 in0.0 mm 0.00 in0.0 mm 0.02 in0.5 mm
03:00 AM 50.4°F10.2°C 48.2°F9.0°C 92% 8.1 mph WSW13.0 kmh WSW 17.0 mph27.4 kmh 30.11 in1019.6 mb 0.00 in0.0 mm 0.00 in0.0 mm 0.02 in0.5 mm
02:59 AM 51.4°F10.8°C 48.6°F9.2°C 90% 6.0 mph WSW9.7 kmh WSW -- 29.78 in1008.5 mb 0.00 in0.0 mm 0.00 in0.0 mm 0.02 in0.5 mm
02:55 AM 50.4°F10.2°C 48.2°F9.0°C 92% 8.9 mph WSW14.3 kmh WSW 17.0 mph27.4 kmh 30.11 in1019.6 mb 0.00 in0.0 mm 0.00 in0.0 mm 0.02 in0.5 mm
02:54 AM 51.4°F10.8°C 48.6°F9.2°C 90% 8.0 mph WSW12.9 kmh WSW -- 29.78 in1008.5 mb 0.00 in0.0 mm 0.00 in0.0 mm 0.02 in0.5 mm
02:50 AM 50.4°F10.2°C 48.2°F9.0°C 92% 8.9 mph SW14.3 kmh SW 17.0 mph27.4 kmh 30.11 in1019.6 mb 0.00 in0.0 mm 0.00 in0.0 mm 0.02 in0.5 mm
02:49 AM 51.4°F10.8°C 48.6°F9.2°C 90% 8.0 mph WSW12.9 kmh WSW -- 29.78 in1008.5 mb 0.00 in0.0 mm 0.00 in0.0 mm 0.02 in0.5 mm
02:45 AM 50.4°F10.2°C 48.2°F9.0°C 92% 10.1 mph SW16.3 kmh SW 19.0 mph30.6 kmh 30.10 in1019.3 mb 0.00 in0.0 mm 0.00 in0.0 mm 0.02 in0.5 mm
02:44 AM 51.6°F10.9°C 48.8°F9.3°C 90% 9.0 mph WSW14.5 kmh WSW -- 29.79 in1008.8 mb 0.00 in0.0 mm 0.00 in0.0 mm 0.02 in0.5 mm
02:40 AM 50.4°F10.2°C 48.2°F9.0°C 92% 8.9 mph SW14.3 kmh SW 19.0 mph30.6 kmh 30.11 in1019.6 mb 0.00 in0.0 mm 0.00 in0.0 mm 0.02 in0.5 mm
02:39 AM 51.6°F10.9°C 48.8°F9.3°C 90% 9.0 mph WSW14.5 kmh WSW -- 29.79 in1008.8 mb 0.00 in0.0 mm 0.00 in0.0 mm 0.02 in0.5 mm
02:35 AM 50.5°F10.3°C 48.4°F9.1°C 92% 8.9 mph SW14.3 kmh SW 17.9 mph28.8 kmh 30.11 in1019.6 mb 0.00 in0.0 mm 0.00 in0.0 mm 0.02 in0.5 mm
02:34 AM 51.6°F10.9°C 48.8°F9.3°C 90% 5.0 mph SW8.0 kmh SW -- 29.78 in1008.5 mb 0.00 in0.0 mm 0.00 in0.0 mm 0.02 in0.5 mm
02:30 AM 50.5°F10.3°C 48.4°F9.1°C 92% 10.1 mph SW16.3 kmh SW 19.9 mph32.0 kmh 30.10 in1019.3 mb 0.00 in0.0 mm 0.00 in0.0 mm 0.02 in0.5 mm
02:29 AM 51.6°F10.9°C 48.8°F9.3°C 90% 5.0 mph SW8.0 kmh SW -- 29.78 in1008.5 mb 0.00 in0.0 mm 0.00 in0.0 mm 0.02 in0.5 mm
02:25 AM 50.7°F10.4°C 48.2°F9.0°C 91% 8.9 mph SW14.3 kmh SW 17.0 mph27.4 kmh 30.10 in1019.3 mb 0.00 in0.0 mm 0.00 in0.0 mm 0.02 in0.5 mm
02:24 AM 51.6°F10.9°C 48.8°F9.3°C 90% 8.0 mph WSW12.9 kmh WSW -- 29.78 in1008.5 mb 0.00 in0.0 mm 0.00 in0.0 mm 0.02 in0.5 mm
02:20 AM 50.7°F10.4°C 48.2°F9.0°C 91% 10.1 mph SSW16.3 kmh SSW 16.1 mph25.9 kmh 30.10 in1019.3 mb 0.00 in0.0 mm 0.00 in0.0 mm 0.02 in0.5 mm
02:19 AM 51.6°F10.9°C 48.8°F9.3°C 90% 8.0 mph WSW12.9 kmh WSW -- 29.78 in1008.5 mb 0.00 in0.0 mm 0.00 in0.0 mm 0.02 in0.5 mm
02:15 AM 50.7°F10.4°C 48.2°F9.0°C 91% 8.9 mph SW14.3 kmh SW 17.9 mph28.8 kmh 30.10 in1019.3 mb 0.00 in0.0 mm 0.00 in0.0 mm 0.02 in0.5 mm
02:14 AM 51.8°F11.0°C 49.0°F9.4°C 90% 8.0 mph WSW12.9 kmh WSW -- 29.78 in1008.5 mb 0.00 in0.0 mm 0.00 in0.0 mm 0.02 in0.5 mm
02:10 AM 50.7°F10.4°C 48.2°F9.0°C 91% 8.1 mph SW13.0 kmh SW 21.9 mph35.2 kmh 30.10 in1019.3 mb 0.00 in0.0 mm 0.00 in0.0 mm 0.02 in0.5 mm
02:09 AM 51.8°F11.0°C 49.0°F9.4°C 90% 8.0 mph WSW12.9 kmh WSW -- 29.78 in1008.5 mb 0.00 in0.0 mm 0.00 in0.0 mm 0.02 in0.5 mm
02:05 AM 50.9°F10.5°C 48.4°F9.1°C 91% 8.9 mph SW14.3 kmh SW 17.0 mph27.4 kmh 30.10 in1019.3 mb 0.00 in0.0 mm 0.00 in0.0 mm 0.02 in0.5 mm
02:04 AM 51.8°F11.0°C 49.0°F9.4°C 90% 6.0 mph WSW9.7 kmh WSW -- 29.79 in1008.8 mb 0.00 in0.0 mm 0.00 in0.0 mm 0.02 in0.5 mm
02:00 AM 50.9°F10.5°C 48.4°F9.1°C 91% 10.1 mph SW16.3 kmh SW 21.9 mph35.2 kmh 30.11 in1019.6 mb 0.00 in0.0 mm 0.00 in0.0 mm 0.02 in0.5 mm
01:59 AM 51.8°F11.0°C 49.0°F9.4°C 90% 6.0 mph WSW9.7 kmh WSW -- 29.79 in1008.8 mb 0.00 in0.0 mm 0.00 in0.0 mm 0.02 in0.5 mm
01:55 AM 50.7°F10.4°C 48.6°F9.2°C 92% 8.9 mph SW14.3 kmh SW 21.0 mph33.8 kmh 30.11 in1019.6 mb 0.01 in0.3 mm 0.60 in15.2 mm 0.02 in0.5 mm
01:54 AM 52.0°F11.1°C 49.1°F9.5°C 90% 9.0 mph WSW14.5 kmh WSW -- 29.78 in1008.5 mb 0.00 in0.0 mm 0.00 in0.0 mm 0.01 in0.3 mm
01:50 AM 50.7°F10.4°C 48.6°F9.2°C 92% 8.9 mph SSW14.3 kmh SSW 16.1 mph25.9 kmh 30.11 in1019.6 mb 0.01 in0.3 mm 0.60 in15.2 mm 0.02 in0.5 mm
01:49 AM 52.0°F11.1°C 49.1°F9.5°C 90% 9.0 mph WSW14.5 kmh WSW -- 29.78 in1008.5 mb 0.00 in0.0 mm 0.00 in0.0 mm 0.00 in0.0 mm
01:44 AM 52.0°F11.1°C 49.1°F9.5°C 90% 9.0 mph WSW14.5 kmh WSW -- 29.79 in1008.8 mb 0.00 in0.0 mm 0.00 in0.0 mm 0.00 in0.0 mm
01:39 AM 52.0°F11.1°C 49.1°F9.5°C 90% 9.0 mph WSW14.5 kmh WSW -- 29.79 in1008.8 mb 0.00 in0.0 mm 0.00 in0.0 mm 0.00 in0.0 mm
01:34 AM 52.2°F11.2°C 49.3°F9.6°C 90% 9.0 mph WSW14.5 kmh WSW -- 29.79 in1008.8 mb 0.00 in0.0 mm 0.00 in0.0 mm 0.00 in0.0 mm
01:29 AM 52.2°F11.2°C 49.3°F9.6°C 90% 9.0 mph WSW14.5 kmh WSW -- 29.79 in1008.8 mb 0.00 in0.0 mm 0.00 in0.0 mm 0.00 in0.0 mm
01:24 AM 52.2°F11.2°C 49.3°F9.6°C 90% 8.0 mph WSW12.9 kmh WSW -- 29.80 in1009.1 mb 0.00 in0.0 mm 0.00 in0.0 mm 0.00 in0.0 mm
01:19 AM 52.2°F11.2°C 49.3°F9.6°C 90% 8.0 mph WSW12.9 kmh WSW -- 29.80 in1009.1 mb 0.00 in0.0 mm 0.00 in0.0 mm 0.00 in0.0 mm
01:14 AM 52.3°F11.3°C 49.5°F9.7°C 90% 6.0 mph WSW9.7 kmh WSW -- 29.80 in1009.1 mb 0.00 in0.0 mm 0.00 in0.0 mm 0.00 in0.0 mm
01:09 AM 52.3°F11.3°C 49.5°F9.7°C 90% 6.0 mph WSW9.7 kmh WSW -- 29.80 in1009.1 mb 0.00 in0.0 mm 0.00 in0.0 mm 0.00 in0.0 mm
01:04 AM 52.3°F11.3°C 49.5°F9.7°C 90% 5.0 mph WSW8.0 kmh WSW -- 29.81 in1009.5 mb 0.00 in0.0 mm 0.00 in0.0 mm 0.00 in0.0 mm
12:59 AM 52.3°F11.3°C 49.5°F9.7°C 90% 5.0 mph WSW8.0 kmh WSW -- 29.81 in1009.5 mb 0.00 in0.0 mm 0.00 in0.0 mm 0.00 in0.0 mm
12:54 AM 52.2°F11.2°C 49.3°F9.6°C 90% 5.0 mph WSW8.0 kmh WSW -- 29.80 in1009.1 mb 0.00 in0.0 mm 0.00 in0.0 mm 0.00 in0.0 mm
12:49 AM 52.2°F11.2°C 49.3°F9.6°C 90% 5.0 mph WSW8.0 kmh WSW -- 29.80 in1009.1 mb 0.00 in0.0 mm 0.00 in0.0 mm 0.00 in0.0 mm
12:44 AM 52.0°F11.1°C 49.1°F9.5°C 90% 5.0 mph WSW8.0 kmh WSW -- 29.81 in1009.5 mb 0.00 in0.0 mm 0.00 in0.0 mm 0.00 in0.0 mm
12:39 AM 52.0°F11.1°C 49.1°F9.5°C 90% 5.0 mph WSW8.0 kmh WSW -- 29.81 in1009.5 mb 0.00 in0.0 mm 0.00 in0.0 mm 0.00 in0.0 mm
12:34 AM 52.0°F11.1°C 49.1°F9.5°C 90% 8.0 mph WSW12.9 kmh WSW -- 29.82 in1009.8 mb 0.00 in0.0 mm 0.00 in0.0 mm 0.00 in0.0 mm
12:29 AM 52.0°F11.1°C 49.1°F9.5°C 90% 8.0 mph WSW12.9 kmh WSW -- 29.82 in1009.8 mb 0.00 in0.0 mm 0.00 in0.0 mm 0.00 in0.0 mm
12:24 AM 52.0°F11.1°C 49.1°F9.5°C 90% 8.0 mph WSW12.9 kmh WSW -- 29.82 in1009.8 mb 0.00 in0.0 mm 0.00 in0.0 mm 0.00 in0.0 mm
12:19 AM 52.0°F11.1°C 49.1°F9.5°C 90% 9.0 mph WSW14.5 kmh WSW -- 29.82 in1009.8 mb 0.00 in0.0 mm 0.00 in0.0 mm 0.00 in0.0 mm
12:14 AM 52.0°F11.1°C 49.1°F9.5°C 90% 9.0 mph WSW14.5 kmh WSW -- 29.82 in1009.8 mb 0.00 in0.0 mm 0.00 in0.0 mm 0.00 in0.0 mm
12:09 AM 52.0°F11.1°C 49.1°F9.5°C 90% 6.0 mph WSW9.7 kmh WSW -- 29.81 in1009.5 mb 0.00 in0.0 mm 0.00 in0.0 mm 0.00 in0.0 mm
12:04 AM 52.0°F11.1°C 49.1°F9.5°C 90% 6.0 mph WSW9.7 kmh WSW -- 29.81 in1009.5 mb 0.00 in0.0 mm 0.00 in0.0 mm 0.00 in0.0 mm